sensor_id;sensor_type;location;lat;lon;timestamp;P1;durP1;ratioP1;P2;durP2;ratioP2
23470;SDS011;11908;50.806;4.424;2022-11-02T00:01:07;8.88;;;1.73;;
23470;SDS011;11908;50.806;4.424;2022-11-02T00:03:43;8.10;;;1.77;;
23470;SDS011;11908;50.806;4.424;2022-11-02T00:06:09;10.20;;;2.40;;
23470;SDS011;11908;50.806;4.424;2022-11-02T00:08:35;8.32;;;1.67;;
23470;SDS011;11908;50.806;4.424;2022-11-02T00:11:00;8.13;;;1.67;;
23470;SDS011;11908;50.806;4.424;2022-11-02T00:13:26;11.20;;;2.08;;
23470;SDS011;11908;50.806;4.424;2022-11-02T00:15:51;9.25;;;1.55;;
23470;SDS011;11908;50.806;4.424;2022-11-02T00:18:17;10.02;;;2.00;;
23470;SDS011;11908;50.806;4.424;2022-11-02T00:20:43;11.05;;;1.92;;
23470;SDS011;11908;50.806;4.424;2022-11-02T00:23:08;12.95;;;1.88;;
23470;SDS011;11908;50.806;4.424;2022-11-02T00:25:41;16.17;;;2.70;;
23470;SDS011;11908;50.806;4.424;2022-11-02T00:28:10;10.30;;;1.95;;
23470;SDS011;11908;50.806;4.424;2022-11-02T00:30:36;11.55;;;1.67;;
23470;SDS011;11908;50.806;4.424;2022-11-02T00:33:02;9.35;;;2.40;;
23470;SDS011;11908;50.806;4.424;2022-11-02T00:35:28;9.32;;;2.03;;
23470;SDS011;11908;50.806;4.424;2022-11-02T00:37:53;9.88;;;1.88;;
23470;SDS011;11908;50.806;4.424;2022-11-02T00:40:19;12.07;;;1.92;;
23470;SDS011;11908;50.806;4.424;2022-11-02T00:42:45;10.23;;;1.95;;
23470;SDS011;11908;50.806;4.424;2022-11-02T00:45:11;10.13;;;2.10;;
23470;SDS011;11908;50.806;4.424;2022-11-02T00:47:36;8.25;;;1.55;;
23470;SDS011;11908;50.806;4.424;2022-11-02T00:50:02;7.03;;;1.60;;
23470;SDS011;11908;50.806;4.424;2022-11-02T00:52:28;9.82;;;2.47;;
23470;SDS011;11908;50.806;4.424;2022-11-02T00:54:55;9.68;;;2.63;;
23470;SDS011;11908;50.806;4.424;2022-11-02T00:57:21;10.48;;;1.95;;
23470;SDS011;11908;50.806;4.424;2022-11-02T00:59:46;8.82;;;2.30;;
23470;SDS011;11908;50.806;4.424;2022-11-02T01:02:12;8.50;;;2.03;;
23470;SDS011;11908;50.806;4.424;2022-11-02T01:04:38;10.45;;;1.90;;
23470;SDS011;11908;50.806;4.424;2022-11-02T01:07:03;11.95;;;2.13;;
23470;SDS011;11908;50.806;4.424;2022-11-02T01:09:29;7.85;;;1.60;;
23470;SDS011;11908;50.806;4.424;2022-11-02T01:11:55;12.07;;;2.55;;
23470;SDS011;11908;50.806;4.424;2022-11-02T01:14:21;13.20;;;1.90;;
23470;SDS011;11908;50.806;4.424;2022-11-02T01:16:47;15.20;;;1.98;;
23470;SDS011;11908;50.806;4.424;2022-11-02T01:19:13;9.70;;;1.77;;
23470;SDS011;11908;50.806;4.424;2022-11-02T01:21:38;15.18;;;2.28;;
23470;SDS011;11908;50.806;4.424;2022-11-02T01:24:04;11.98;;;2.47;;
23470;SDS011;11908;50.806;4.424;2022-11-02T01:26:30;11.38;;;2.42;;
23470;SDS011;11908;50.806;4.424;2022-11-02T01:28:56;11.75;;;2.13;;
23470;SDS011;11908;50.806;4.424;2022-11-02T01:31:21;7.78;;;2.10;;
23470;SDS011;11908;50.806;4.424;2022-11-02T01:33:47;8.15;;;2.08;;
23470;SDS011;11908;50.806;4.424;2022-11-02T01:36:13;10.88;;;2.10;;
23470;SDS011;11908;50.806;4.424;2022-11-02T01:38:41;13.65;;;2.38;;
23470;SDS011;11908;50.806;4.424;2022-11-02T01:41:07;12.02;;;2.22;;
23470;SDS011;11908;50.806;4.424;2022-11-02T01:43:35;13.73;;;2.35;;
23470;SDS011;11908;50.806;4.424;2022-11-02T01:54:24;8.95;;;2.20;;
23470;SDS011;11908;50.806;4.424;2022-11-02T01:56:55;15.07;;;2.42;;
23470;SDS011;11908;50.806;4.424;2022-11-02T01:59:34;6.57;;;1.70;;
23470;SDS011;11908;50.806;4.424;2022-11-02T02:02:06;11.23;;;2.22;;
23470;SDS011;11908;50.806;4.424;2022-11-02T02:04:39;9.52;;;2.03;;
23470;SDS011;11908;50.806;4.424;2022-11-02T02:07:05;11.20;;;2.65;;
23470;SDS011;11908;50.806;4.424;2022-11-02T02:09:31;10.38;;;2.05;;
23470;SDS011;11908;50.806;4.424;2022-11-02T02:11:58;11.57;;;2.20;;
23470;SDS011;11908;50.806;4.424;2022-11-02T02:14:23;9.70;;;1.75;;
23470;SDS011;11908;50.806;4.424;2022-11-02T02:17:15;17.67;;;2.25;;
23470;SDS011;11908;50.806;4.424;2022-11-02T02:20:01;14.38;;;2.33;;
23470;SDS011;11908;50.806;4.424;2022-11-02T02:30:56;12.25;;;2.30;;
23470;SDS011;11908;50.806;4.424;2022-11-02T02:39:50;8.52;;;2.42;;
23470;SDS011;11908;50.806;4.424;2022-11-02T02:42:12;17.55;;;3.00;;
23470;SDS011;11908;50.806;4.424;2022-11-02T02:44:45;14.85;;;2.85;;
23470;SDS011;11908;50.806;4.424;2022-11-02T02:47:21;15.40;;;2.38;;
23470;SDS011;11908;50.806;4.424;2022-11-02T02:49:57;10.98;;;2.15;;
23470;SDS011;11908;50.806;4.424;2022-11-02T02:52:29;14.10;;;2.47;;
23470;SDS011;11908;50.806;4.424;2022-11-02T02:54:58;17.48;;;2.72;;
23470;SDS011;11908;50.806;4.424;2022-11-02T02:57:27;12.45;;;2.33;;
23470;SDS011;11908;50.806;4.424;2022-11-02T02:59:55;11.32;;;2.85;;
23470;SDS011;11908;50.806;4.424;2022-11-02T03:02:22;14.63;;;2.45;;
23470;SDS011;11908;50.806;4.424;2022-11-02T03:04:51;17.40;;;2.55;;
23470;SDS011;11908;50.806;4.424;2022-11-02T03:07:21;11.18;;;2.00;;
23470;SDS011;11908;50.806;4.424;2022-11-02T03:09:50;14.55;;;2.47;;
23470;SDS011;11908;50.806;4.424;2022-11-02T03:13:15;12.15;;;2.17;;
23470;SDS011;11908;50.806;4.424;2022-11-02T03:15:25;12.98;;;2.55;;
23470;SDS011;11908;50.806;4.424;2022-11-02T03:26:21;13.57;;;2.92;;
23470;SDS011;11908;50.806;4.424;2022-11-02T03:31:42;18.50;;;2.67;;
23470;SDS011;11908;50.806;4.424;2022-11-02T03:37:00;10.85;;;3.13;;
23470;SDS011;11908;50.806;4.424;2022-11-02T03:39:47;14.05;;;2.40;;
23470;SDS011;11908;50.806;4.424;2022-11-02T03:42:19;12.45;;;2.30;;
23470;SDS011;11908;50.806;4.424;2022-11-02T03:44:48;13.02;;;2.45;;
23470;SDS011;11908;50.806;4.424;2022-11-02T03:47:19;12.48;;;2.33;;
23470;SDS011;11908;50.806;4.424;2022-11-02T03:49:46;13.65;;;2.90;;
23470;SDS011;11908;50.806;4.424;2022-11-02T03:52:15;16.00;;;3.08;;
23470;SDS011;11908;50.806;4.424;2022-11-02T03:54:48;16.83;;;3.25;;
23470;SDS011;11908;50.806;4.424;2022-11-02T03:57:18;14.60;;;3.28;;
23470;SDS011;11908;50.806;4.424;2022-11-02T03:59:49;16.00;;;2.90;;
23470;SDS011;11908;50.806;4.424;2022-11-02T04:02:15;14.82;;;3.42;;
23470;SDS011;11908;50.806;4.424;2022-11-02T04:04:49;16.98;;;3.08;;
23470;SDS011;11908;50.806;4.424;2022-11-02T04:07:17;19.20;;;3.08;;
23470;SDS011;11908;50.806;4.424;2022-11-02T04:09:45;16.70;;;3.10;;
23470;SDS011;11908;50.806;4.424;2022-11-02T04:12:11;10.55;;;2.58;;
23470;SDS011;11908;50.806;4.424;2022-11-02T04:14:55;9.27;;;2.08;;
23470;SDS011;11908;50.806;4.424;2022-11-02T04:17:21;15.90;;;3.20;;
23470;SDS011;11908;50.806;4.424;2022-11-02T04:20:05;12.82;;;2.65;;
23470;SDS011;11908;50.806;4.424;2022-11-02T04:22:31;9.82;;;2.50;;
23470;SDS011;11908;50.806;4.424;2022-11-02T04:27:48;12.88;;;2.50;;
23470;SDS011;11908;50.806;4.424;2022-11-02T04:30:17;15.40;;;2.38;;
23470;SDS011;11908;50.806;4.424;2022-11-02T04:32:45;15.18;;;3.22;;
23470;SDS011;11908;50.806;4.424;2022-11-02T04:35:30;19.05;;;2.75;;
23470;SDS011;11908;50.806;4.424;2022-11-02T04:37:57;14.05;;;2.65;;
23470;SDS011;11908;50.806;4.424;2022-11-02T04:40:41;13.73;;;2.90;;
23470;SDS011;11908;50.806;4.424;2022-11-02T04:43:07;12.90;;;2.72;;
23470;SDS011;11908;50.806;4.424;2022-11-02T04:45:33;12.75;;;2.22;;
23470;SDS011;11908;50.806;4.424;2022-11-02T04:48:00;14.85;;;3.35;;
23470;SDS011;11908;50.806;4.424;2022-11-02T04:50:26;14.45;;;2.47;;
23470;SDS011;11908;50.806;4.424;2022-11-02T04:52:55;14.55;;;2.78;;
23470;SDS011;11908;50.806;4.424;2022-11-02T04:55:25;18.03;;;2.30;;
23470;SDS011;11908;50.806;4.424;2022-11-02T04:57:51;22.45;;;3.25;;
23470;SDS011;11908;50.806;4.424;2022-11-02T05:00:17;14.57;;;3.13;;
23470;SDS011;11908;50.806;4.424;2022-11-02T05:02:45;19.65;;;3.42;;
23470;SDS011;11908;50.806;4.424;2022-11-02T05:05:12;21.05;;;3.15;;
23470;SDS011;11908;50.806;4.424;2022-11-02T05:07:38;18.90;;;2.95;;
23470;SDS011;11908;50.806;4.424;2022-11-02T05:10:03;17.13;;;3.05;;
23470;SDS011;11908;50.806;4.424;2022-11-02T05:12:30;11.98;;;2.78;;
23470;SDS011;11908;50.806;4.424;2022-11-02T05:14:55;16.92;;;3.38;;
23470;SDS011;11908;50.806;4.424;2022-11-02T05:17:21;12.02;;;2.42;;
23470;SDS011;11908;50.806;4.424;2022-11-02T05:19:47;19.75;;;2.97;;
23470;SDS011;11908;50.806;4.424;2022-11-02T05:22:12;22.92;;;2.85;;
23470;SDS011;11908;50.806;4.424;2022-11-02T05:24:38;17.33;;;3.72;;
23470;SDS011;11908;50.806;4.424;2022-11-02T05:27:03;14.52;;;3.00;;
23470;SDS011;11908;50.806;4.424;2022-11-02T05:29:29;12.70;;;2.40;;
23470;SDS011;11908;50.806;4.424;2022-11-02T05:31:55;15.75;;;3.15;;
23470;SDS011;11908;50.806;4.424;2022-11-02T05:34:21;14.90;;;2.83;;
23470;SDS011;11908;50.806;4.424;2022-11-02T05:36:47;21.90;;;3.35;;
23470;SDS011;11908;50.806;4.424;2022-11-02T05:39:13;18.35;;;2.95;;
23470;SDS011;11908;50.806;4.424;2022-11-02T05:41:38;17.73;;;3.25;;
23470;SDS011;11908;50.806;4.424;2022-11-02T05:44:04;18.38;;;3.20;;
23470;SDS011;11908;50.806;4.424;2022-11-02T05:46:30;22.45;;;2.80;;
23470;SDS011;11908;50.806;4.424;2022-11-02T05:48:56;14.80;;;3.47;;
23470;SDS011;11908;50.806;4.424;2022-11-02T05:51:21;19.48;;;2.88;;
23470;SDS011;11908;50.806;4.424;2022-11-02T05:53:47;22.63;;;3.65;;
23470;SDS011;11908;50.806;4.424;2022-11-02T05:56:13;14.88;;;3.08;;
23470;SDS011;11908;50.806;4.424;2022-11-02T05:58:39;19.80;;;3.15;;
23470;SDS011;11908;50.806;4.424;2022-11-02T06:01:05;27.42;;;3.40;;
23470;SDS011;11908;50.806;4.424;2022-11-02T06:03:32;16.45;;;3.70;;
23470;SDS011;11908;50.806;4.424;2022-11-02T06:05:59;22.17;;;3.47;;
23470;SDS011;11908;50.806;4.424;2022-11-02T06:08:26;16.17;;;3.17;;
23470;SDS011;11908;50.806;4.424;2022-11-02T06:10:52;17.85;;;3.38;;
23470;SDS011;11908;50.806;4.424;2022-11-02T06:13:18;19.60;;;3.50;;
23470;SDS011;11908;50.806;4.424;2022-11-02T06:15:43;16.48;;;3.50;;
23470;SDS011;11908;50.806;4.424;2022-11-02T06:18:09;19.40;;;3.70;;
23470;SDS011;11908;50.806;4.424;2022-11-02T06:20:35;15.95;;;3.05;;
23470;SDS011;11908;50.806;4.424;2022-11-02T06:23:00;16.15;;;3.63;;
23470;SDS011;11908;50.806;4.424;2022-11-02T06:25:26;15.52;;;3.25;;
23470;SDS011;11908;50.806;4.424;2022-11-02T06:27:53;26.00;;;4.43;;
23470;SDS011;11908;50.806;4.424;2022-11-02T06:30:20;21.15;;;3.60;;
23470;SDS011;11908;50.806;4.424;2022-11-02T06:32:50;22.50;;;3.28;;
23470;SDS011;11908;50.806;4.424;2022-11-02T06:35:17;20.58;;;3.70;;
23470;SDS011;11908;50.806;4.424;2022-11-02T06:37:44;22.73;;;3.67;;
23470;SDS011;11908;50.806;4.424;2022-11-02T06:40:10;27.88;;;3.47;;
23470;SDS011;11908;50.806;4.424;2022-11-02T06:42:37;23.05;;;3.13;;
23470;SDS011;11908;50.806;4.424;2022-11-02T06:45:04;24.48;;;4.15;;
23470;SDS011;11908;50.806;4.424;2022-11-02T06:47:31;23.30;;;4.25;;
23470;SDS011;11908;50.806;4.424;2022-11-02T06:49:59;28.30;;;3.78;;
23470;SDS011;11908;50.806;4.424;2022-11-02T06:52:25;21.98;;;3.88;;
23470;SDS011;11908;50.806;4.424;2022-11-02T06:54:51;22.75;;;3.55;;
23470;SDS011;11908;50.806;4.424;2022-11-02T06:57:18;18.17;;;3.58;;
23470;SDS011;11908;50.806;4.424;2022-11-02T06:59:43;28.83;;;4.05;;
23470;SDS011;11908;50.806;4.424;2022-11-02T07:02:09;25.95;;;3.85;;
23470;SDS011;11908;50.806;4.424;2022-11-02T07:04:35;16.27;;;3.20;;
23470;SDS011;11908;50.806;4.424;2022-11-02T07:07:00;22.70;;;3.85;;
23470;SDS011;11908;50.806;4.424;2022-11-02T07:09:26;25.17;;;3.78;;
23470;SDS011;11908;50.806;4.424;2022-11-02T07:11:52;20.98;;;4.20;;
23470;SDS011;11908;50.806;4.424;2022-11-02T07:14:18;24.80;;;4.00;;
23470;SDS011;11908;50.806;4.424;2022-11-02T07:16:43;20.90;;;3.75;;
23470;SDS011;11908;50.806;4.424;2022-11-02T07:19:09;28.48;;;3.47;;
23470;SDS011;11908;50.806;4.424;2022-11-02T07:21:35;19.50;;;3.63;;
23470;SDS011;11908;50.806;4.424;2022-11-02T07:24:00;22.23;;;3.53;;
23470;SDS011;11908;50.806;4.424;2022-11-02T07:26:26;29.45;;;4.20;;
23470;SDS011;11908;50.806;4.424;2022-11-02T07:28:52;22.85;;;4.10;;
23470;SDS011;11908;50.806;4.424;2022-11-02T07:31:18;20.67;;;3.40;;
23470;SDS011;11908;50.806;4.424;2022-11-02T07:33:43;22.67;;;4.53;;
23470;SDS011;11908;50.806;4.424;2022-11-02T07:36:09;19.05;;;3.33;;
23470;SDS011;11908;50.806;4.424;2022-11-02T07:38:35;22.23;;;4.07;;
23470;SDS011;11908;50.806;4.424;2022-11-02T07:41:01;25.17;;;3.97;;
23470;SDS011;11908;50.806;4.424;2022-11-02T07:43:26;24.75;;;4.05;;
23470;SDS011;11908;50.806;4.424;2022-11-02T07:45:52;21.88;;;3.63;;
23470;SDS011;11908;50.806;4.424;2022-11-02T07:48:18;26.65;;;3.95;;
23470;SDS011;11908;50.806;4.424;2022-11-02T07:50:44;24.80;;;4.30;;
23470;SDS011;11908;50.806;4.424;2022-11-02T07:53:10;19.40;;;3.35;;
23470;SDS011;11908;50.806;4.424;2022-11-02T07:55:35;21.17;;;3.80;;
23470;SDS011;11908;50.806;4.424;2022-11-02T07:58:02;18.17;;;4.35;;
23470;SDS011;11908;50.806;4.424;2022-11-02T08:00:33;23.90;;;3.92;;
23470;SDS011;11908;50.806;4.424;2022-11-02T08:03:01;19.73;;;3.80;;
23470;SDS011;11908;50.806;4.424;2022-11-02T08:05:38;22.40;;;3.40;;
23470;SDS011;11908;50.806;4.424;2022-11-02T08:08:07;20.85;;;4.00;;
23470;SDS011;11908;50.806;4.424;2022-11-02T08:10:38;20.35;;;3.42;;
23470;SDS011;11908;50.806;4.424;2022-11-02T08:13:04;19.58;;;3.58;;
23470;SDS011;11908;50.806;4.424;2022-11-02T08:15:30;18.83;;;3.47;;
23470;SDS011;11908;50.806;4.424;2022-11-02T08:17:59;17.30;;;3.33;;
23470;SDS011;11908;50.806;4.424;2022-11-02T08:20:28;19.10;;;3.83;;
23470;SDS011;11908;50.806;4.424;2022-11-02T08:22:54;23.75;;;3.45;;
23470;SDS011;11908;50.806;4.424;2022-11-02T08:25:20;24.45;;;3.33;;
23470;SDS011;11908;50.806;4.424;2022-11-02T08:27:46;22.52;;;3.97;;
23470;SDS011;11908;50.806;4.424;2022-11-02T08:30:11;21.35;;;3.95;;
23470;SDS011;11908;50.806;4.424;2022-11-02T08:32:37;19.35;;;3.83;;
23470;SDS011;11908;50.806;4.424;2022-11-02T08:35:03;16.83;;;3.78;;
23470;SDS011;11908;50.806;4.424;2022-11-02T08:37:29;25.60;;;3.70;;
23470;SDS011;11908;50.806;4.424;2022-11-02T08:39:55;22.90;;;3.85;;
23470;SDS011;11908;50.806;4.424;2022-11-02T08:42:20;26.50;;;3.78;;
23470;SDS011;11908;50.806;4.424;2022-11-02T08:44:46;16.42;;;3.22;;
23470;SDS011;11908;50.806;4.424;2022-11-02T08:47:12;17.60;;;3.72;;
23470;SDS011;11908;50.806;4.424;2022-11-02T08:49:39;23.58;;;3.33;;
23470;SDS011;11908;50.806;4.424;2022-11-02T08:52:04;17.83;;;3.72;;
23470;SDS011;11908;50.806;4.424;2022-11-02T08:54:30;19.20;;;3.50;;
23470;SDS011;11908;50.806;4.424;2022-11-02T08:56:55;22.25;;;3.65;;
23470;SDS011;11908;50.806;4.424;2022-11-02T08:59:21;13.98;;;3.42;;
23470;SDS011;11908;50.806;4.424;2022-11-02T09:01:47;17.98;;;2.97;;
23470;SDS011;11908;50.806;4.424;2022-11-02T09:04:12;24.52;;;3.95;;
23470;SDS011;11908;50.806;4.424;2022-11-02T09:06:38;16.65;;;3.35;;
23470;SDS011;11908;50.806;4.424;2022-11-02T09:09:03;20.27;;;3.42;;
23470;SDS011;11908;50.806;4.424;2022-11-02T09:11:29;19.20;;;3.13;;
23470;SDS011;11908;50.806;4.424;2022-11-02T09:13:55;29.38;;;5.15;;
23470;SDS011;11908;50.806;4.424;2022-11-02T09:16:20;20.92;;;3.25;;
23470;SDS011;11908;50.806;4.424;2022-11-02T09:18:46;21.88;;;4.03;;
23470;SDS011;11908;50.806;4.424;2022-11-02T09:21:11;19.50;;;3.95;;
23470;SDS011;11908;50.806;4.424;2022-11-02T09:23:37;30.23;;;3.70;;
23470;SDS011;11908;50.806;4.424;2022-11-02T09:26:03;26.70;;;4.45;;
23470;SDS011;11908;50.806;4.424;2022-11-02T09:28:28;20.05;;;3.88;;
23470;SDS011;11908;50.806;4.424;2022-11-02T09:30:55;17.17;;;2.78;;
23470;SDS011;11908;50.806;4.424;2022-11-02T09:33:20;20.27;;;5.07;;
23470;SDS011;11908;50.806;4.424;2022-11-02T09:35:47;20.25;;;3.40;;
23470;SDS011;11908;50.806;4.424;2022-11-02T09:38:13;14.63;;;3.03;;
23470;SDS011;11908;50.806;4.424;2022-11-02T09:40:44;16.48;;;3.60;;
23470;SDS011;11908;50.806;4.424;2022-11-02T09:48:27;15.10;;;3.55;;
23470;SDS011;11908;50.806;4.424;2022-11-02T09:51:40;24.38;;;3.42;;
23470;SDS011;11908;50.806;4.424;2022-11-02T09:56:20;25.40;;;3.63;;
23470;SDS011;11908;50.806;4.424;2022-11-02T09:58:55;17.67;;;3.95;;
23470;SDS011;11908;50.806;4.424;2022-11-02T10:01:48;18.33;;;3.35;;
23470;SDS011;11908;50.806;4.424;2022-11-02T10:07:08;21.60;;;4.13;;
23470;SDS011;11908;50.806;4.424;2022-11-02T10:12:53;15.18;;;3.38;;
23470;SDS011;11908;50.806;4.424;2022-11-02T10:15:31;17.50;;;2.88;;
23470;SDS011;11908;50.806;4.424;2022-11-02T10:18:05;13.98;;;3.00;;
23470;SDS011;11908;50.806;4.424;2022-11-02T10:20:39;13.77;;;2.97;;
23470;SDS011;11908;50.806;4.424;2022-11-02T10:23:11;16.83;;;3.15;;
23470;SDS011;11908;50.806;4.424;2022-11-02T10:25:48;17.80;;;3.42;;
23470;SDS011;11908;50.806;4.424;2022-11-02T10:28:17;15.13;;;3.35;;
23470;SDS011;11908;50.806;4.424;2022-11-02T10:30:45;17.35;;;3.15;;
23470;SDS011;11908;50.806;4.424;2022-11-02T10:33:16;13.77;;;3.28;;
23470;SDS011;11908;50.806;4.424;2022-11-02T10:47:11;14.80;;;3.35;;
23470;SDS011;11908;50.806;4.424;2022-11-02T10:49:44;18.27;;;3.85;;
23470;SDS011;11908;50.806;4.424;2022-11-02T10:52:22;13.70;;;3.35;;
23470;SDS011;11908;50.806;4.424;2022-11-02T10:54:51;11.60;;;3.17;;
23470;SDS011;11908;50.806;4.424;2022-11-02T10:57:21;22.90;;;3.72;;
23470;SDS011;11908;50.806;4.424;2022-11-02T11:03:08;15.52;;;3.25;;
23470;SDS011;11908;50.806;4.424;2022-11-02T11:05:37;14.32;;;3.20;;
23470;SDS011;11908;50.806;4.424;2022-11-02T11:08:29;18.15;;;3.00;;
23470;SDS011;11908;50.806;4.424;2022-11-02T11:11:08;14.15;;;3.38;;
23470;SDS011;11908;50.806;4.424;2022-11-02T11:13:39;14.43;;;2.85;;
23470;SDS011;11908;50.806;4.424;2022-11-02T11:16:10;17.13;;;2.65;;
23470;SDS011;11908;50.806;4.424;2022-11-02T11:18:36;15.80;;;3.13;;
23470;SDS011;11908;50.806;4.424;2022-11-02T11:21:03;19.48;;;3.38;;
23470;SDS011;11908;50.806;4.424;2022-11-02T11:23:30;17.80;;;3.63;;
23470;SDS011;11908;50.806;4.424;2022-11-02T11:25:57;15.80;;;3.55;;
23470;SDS011;11908;50.806;4.424;2022-11-02T11:31:01;22.50;;;3.60;;
23470;SDS011;11908;50.806;4.424;2022-11-02T11:33:40;20.33;;;3.00;;
23470;SDS011;11908;50.806;4.424;2022-11-02T11:36:22;13.85;;;2.60;;
23470;SDS011;11908;50.806;4.424;2022-11-02T11:38:50;13.80;;;2.60;;
23470;SDS011;11908;50.806;4.424;2022-11-02T11:41:18;14.30;;;3.00;;
23470;SDS011;11908;50.806;4.424;2022-11-02T11:43:47;14.95;;;2.92;;
23470;SDS011;11908;50.806;4.424;2022-11-02T11:46:15;15.48;;;3.00;;
23470;SDS011;11908;50.806;4.424;2022-11-02T11:48:45;14.52;;;2.67;;
23470;SDS011;11908;50.806;4.424;2022-11-02T11:56:47;12.48;;;2.60;;
23470;SDS011;11908;50.806;4.424;2022-11-02T11:59:22;14.45;;;2.80;;
23470;SDS011;11908;50.806;4.424;2022-11-02T12:02:00;18.00;;;2.92;;
23470;SDS011;11908;50.806;4.424;2022-11-02T12:04:30;12.55;;;2.45;;
23470;SDS011;11908;50.806;4.424;2022-11-02T12:09:58;11.80;;;2.90;;
23470;SDS011;11908;50.806;4.424;2022-11-02T12:15:31;18.80;;;2.45;;
23470;SDS011;11908;50.806;4.424;2022-11-02T12:18:08;11.10;;;2.30;;
23470;SDS011;11908;50.806;4.424;2022-11-02T12:21:08;11.88;;;2.22;;
23470;SDS011;11908;50.806;4.424;2022-11-02T12:32:04;11.65;;;2.30;;
23470;SDS011;11908;50.806;4.424;2022-11-02T12:51:29;14.63;;;2.75;;
23470;SDS011;11908;50.806;4.424;2022-11-02T12:54:03;12.65;;;2.50;;
23470;SDS011;11908;50.806;4.424;2022-11-02T13:01:45;15.40;;;2.50;;
23470;SDS011;11908;50.806;4.424;2022-11-02T13:04:18;18.48;;;2.63;;
23470;SDS011;11908;50.806;4.424;2022-11-02T13:06:48;10.48;;;2.97;;
23470;SDS011;11908;50.806;4.424;2022-11-02T13:09:32;12.23;;;2.25;;
23470;SDS011;11908;50.806;4.424;2022-11-02T13:12:13;18.17;;;2.72;;
23470;SDS011;11908;50.806;4.424;2022-11-02T13:14:43;16.30;;;2.60;;
23470;SDS011;11908;50.806;4.424;2022-11-02T13:19:47;16.90;;;2.17;;
23470;SDS011;11908;50.806;4.424;2022-11-02T13:22:18;10.55;;;2.22;;
23470;SDS011;11908;50.806;4.424;2022-11-02T13:24:46;14.63;;;2.53;;
23470;SDS011;11908;50.806;4.424;2022-11-02T13:27:35;8.15;;;2.00;;
23470;SDS011;11908;50.806;4.424;2022-11-02T13:30:08;11.48;;;2.50;;
23470;SDS011;11908;50.806;4.424;2022-11-02T13:35:13;18.05;;;2.55;;
23470;SDS011;11908;50.806;4.424;2022-11-02T13:37:44;10.48;;;1.70;;
23470;SDS011;11908;50.806;4.424;2022-11-02T13:40:23;12.63;;;2.38;;
23470;SDS011;11908;50.806;4.424;2022-11-02T13:42:57;12.93;;;1.85;;
23470;SDS011;11908;50.806;4.424;2022-11-02T13:45:49;13.65;;;2.10;;
23470;SDS011;11908;50.806;4.424;2022-11-02T13:51:28;15.05;;;2.72;;
23470;SDS011;11908;50.806;4.424;2022-11-02T13:54:06;12.88;;;2.17;;
23470;SDS011;11908;50.806;4.424;2022-11-02T13:56:58;19.63;;;2.70;;
23470;SDS011;11908;50.806;4.424;2022-11-02T13:59:26;12.48;;;1.95;;
23470;SDS011;11908;50.806;4.424;2022-11-02T14:01:54;14.00;;;2.40;;
23470;SDS011;11908;50.806;4.424;2022-11-02T14:04:22;13.23;;;2.50;;
23470;SDS011;11908;50.806;4.424;2022-11-02T14:09:21;13.70;;;2.15;;
23470;SDS011;11908;50.806;4.424;2022-11-02T14:12:28;13.35;;;1.88;;
23470;SDS011;11908;50.806;4.424;2022-11-02T14:30:45;13.70;;;2.20;;
23470;SDS011;11908;50.806;4.424;2022-11-02T14:35:59;9.40;;;2.15;;
23470;SDS011;11908;50.806;4.424;2022-11-02T14:38:34;14.63;;;2.45;;
23470;SDS011;11908;50.806;4.424;2022-11-02T14:47:16;19.10;;;2.05;;
23470;SDS011;11908;50.806;4.424;2022-11-02T14:52:29;9.35;;;1.83;;
23470;SDS011;11908;50.806;4.424;2022-11-02T14:55:04;12.15;;;1.85;;
23470;SDS011;11908;50.806;4.424;2022-11-02T14:57:49;11.27;;;1.90;;
23470;SDS011;11908;50.806;4.424;2022-11-02T15:00:21;15.05;;;1.50;;
23470;SDS011;11908;50.806;4.424;2022-11-02T15:05:54;15.13;;;2.30;;
23470;SDS011;11908;50.806;4.424;2022-11-02T15:08:56;11.25;;;2.08;;
23470;SDS011;11908;50.806;4.424;2022-11-02T15:19:38;14.38;;;2.05;;
23470;SDS011;11908;50.806;4.424;2022-11-02T15:27:39;16.02;;;2.45;;
23470;SDS011;11908;50.806;4.424;2022-11-02T15:30:10;14.43;;;2.05;;
23470;SDS011;11908;50.806;4.424;2022-11-02T15:32:40;13.85;;;2.70;;
23470;SDS011;11908;50.806;4.424;2022-11-02T15:35:25;17.17;;;2.55;;
23470;SDS011;11908;50.806;4.424;2022-11-02T15:37:58;10.25;;;1.70;;
23470;SDS011;11908;50.806;4.424;2022-11-02T15:40:44;12.63;;;2.38;;
23470;SDS011;11908;50.806;4.424;2022-11-02T15:43:45;15.93;;;3.08;;
23470;SDS011;11908;50.806;4.424;2022-11-02T16:03:49;7.10;;;2.13;;
23470;SDS011;11908;50.806;4.424;2022-11-02T16:08:58;12.50;;;1.92;;
23470;SDS011;11908;50.806;4.424;2022-11-02T16:11:26;12.60;;;2.30;;
23470;SDS011;11908;50.806;4.424;2022-11-02T16:13:52;12.20;;;2.60;;
23470;SDS011;11908;50.806;4.424;2022-11-02T16:16:46;19.50;;;2.67;;
23470;SDS011;11908;50.806;4.424;2022-11-02T16:19:18;13.18;;;2.40;;
23470;SDS011;11908;50.806;4.424;2022-11-02T16:21:45;11.23;;;2.50;;
23470;SDS011;11908;50.806;4.424;2022-11-02T16:24:12;10.48;;;2.15;;
23470;SDS011;11908;50.806;4.424;2022-11-02T16:26:38;11.73;;;2.10;;
23470;SDS011;11908;50.806;4.424;2022-11-02T16:29:07;12.43;;;2.50;;
23470;SDS011;11908;50.806;4.424;2022-11-02T16:31:33;10.48;;;2.95;;
23470;SDS011;11908;50.806;4.424;2022-11-02T16:34:11;14.43;;;2.45;;
23470;SDS011;11908;50.806;4.424;2022-11-02T16:36:50;12.10;;;2.20;;
23470;SDS011;11908;50.806;4.424;2022-11-02T16:39:21;14.77;;;2.28;;
23470;SDS011;11908;50.806;4.424;2022-11-02T16:41:47;19.05;;;2.95;;
23470;SDS011;11908;50.806;4.424;2022-11-02T16:44:16;19.85;;;3.20;;
23470;SDS011;11908;50.806;4.424;2022-11-02T16:54:55;12.70;;;2.67;;
23470;SDS011;11908;50.806;4.424;2022-11-02T16:57:22;12.50;;;2.50;;
23470;SDS011;11908;50.806;4.424;2022-11-02T17:00:02;19.00;;;3.03;;
23470;SDS011;11908;50.806;4.424;2022-11-02T17:02:48;13.27;;;2.42;;
23470;SDS011;11908;50.806;4.424;2022-11-02T17:08:21;15.82;;;2.95;;
23470;SDS011;11908;50.806;4.424;2022-11-02T17:10:49;9.43;;;2.53;;
23470;SDS011;11908;50.806;4.424;2022-11-02T17:13:20;8.43;;;2.13;;
23470;SDS011;11908;50.806;4.424;2022-11-02T17:15:47;21.85;;;3.65;;
23470;SDS011;11908;50.806;4.424;2022-11-02T17:18:14;12.85;;;2.65;;
23470;SDS011;11908;50.806;4.424;2022-11-02T17:23:41;14.48;;;2.85;;
23470;SDS011;11908;50.806;4.424;2022-11-02T17:28:47;12.68;;;3.30;;
23470;SDS011;11908;50.806;4.424;2022-11-02T17:31:16;14.98;;;2.60;;
23470;SDS011;11908;50.806;4.424;2022-11-02T17:33:47;13.13;;;2.65;;
23470;SDS011;11908;50.806;4.424;2022-11-02T17:36:14;16.02;;;2.70;;
23470;SDS011;11908;50.806;4.424;2022-11-02T17:38:40;17.73;;;2.85;;
23470;SDS011;11908;50.806;4.424;2022-11-02T17:41:08;14.45;;;2.92;;
23470;SDS011;11908;50.806;4.424;2022-11-02T17:43:55;22.27;;;3.63;;
23470;SDS011;11908;50.806;4.424;2022-11-02T17:46:21;20.30;;;2.72;;
23470;SDS011;11908;50.806;4.424;2022-11-02T17:48:48;17.40;;;3.38;;
23470;SDS011;11908;50.806;4.424;2022-11-02T17:51:13;17.08;;;3.50;;
23470;SDS011;11908;50.806;4.424;2022-11-02T17:53:39;13.75;;;2.47;;
23470;SDS011;11908;50.806;4.424;2022-11-02T17:56:06;14.50;;;3.25;;
23470;SDS011;11908;50.806;4.424;2022-11-02T17:58:34;20.13;;;3.40;;
23470;SDS011;11908;50.806;4.424;2022-11-02T18:00:59;11.52;;;3.17;;
23470;SDS011;11908;50.806;4.424;2022-11-02T18:03:26;17.55;;;3.50;;
23470;SDS011;11908;50.806;4.424;2022-11-02T18:05:52;23.13;;;3.00;;
23470;SDS011;11908;50.806;4.424;2022-11-02T18:08:18;14.50;;;3.38;;
23470;SDS011;11908;50.806;4.424;2022-11-02T18:10:45;20.42;;;2.92;;
23470;SDS011;11908;50.806;4.424;2022-11-02T18:13:18;16.95;;;2.97;;
23470;SDS011;11908;50.806;4.424;2022-11-02T18:15:45;20.00;;;3.45;;